sensor_id;sensor_type;location;lat;lon;timestamp;pressure;altitude;pressure_sealevel;temperature;humidity
62072;BME280;48031;48.542;13.232;2023-05-25T00:00:49;97628.06;;;19.98;56.98
62072;BME280;48031;48.542;13.232;2023-05-25T00:05:03;97632.13;;;20.01;56.87
62072;BME280;48031;48.542;13.232;2023-05-25T00:09:04;97622.44;;;20.03;56.70
62072;BME280;48031;48.542;13.232;2023-05-25T00:18:23;97620.81;;;19.88;56.53
62072;BME280;48031;48.542;13.232;2023-05-25T00:22:25;97631.84;;;19.88;55.09
62072;BME280;48031;48.542;13.232;2023-05-25T00:26:29;97618.88;;;19.75;53.83
62072;BME280;48031;48.542;13.232;2023-05-25T00:30:31;97628.03;;;19.84;53.73
62072;BME280;48031;48.542;13.232;2023-05-25T00:34:33;97633.56;;;19.84;53.84
62072;BME280;48031;48.542;13.232;2023-05-25T00:38:35;97632.47;;;19.39;53.13
62072;BME280;48031;48.542;13.232;2023-05-25T00:42:37;97637.22;;;19.80;53.62
62072;BME280;48031;48.542;13.232;2023-05-25T00:46:47;97638.88;;;19.95;53.26
62072;BME280;48031;48.542;13.232;2023-05-25T00:50:53;97642.13;;;19.69;52.91
62072;BME280;48031;48.542;13.232;2023-05-25T00:54:58;97639.66;;;19.68;53.45
62072;BME280;48031;48.542;13.232;2023-05-25T00:59:03;97645.09;;;19.59;52.70
62072;BME280;48031;48.542;13.232;2023-05-25T01:03:11;97653.69;;;19.39;52.68
62072;BME280;48031;48.542;13.232;2023-05-25T01:07:17;97655.25;;;19.45;53.12
62072;BME280;48031;48.542;13.232;2023-05-25T01:11:25;97656.44;;;19.71;53.07
62072;BME280;48031;48.542;13.232;2023-05-25T01:15:29;97657.47;;;19.43;53.99
62072;BME280;48031;48.542;13.232;2023-05-25T01:19:31;97660.41;;;19.33;52.89
62072;BME280;48031;48.542;13.232;2023-05-25T01:23:42;97652.56;;;19.72;52.12
62072;BME280;48031;48.542;13.232;2023-05-25T01:27:51;97653.94;;;19.56;52.39
62072;BME280;48031;48.542;13.232;2023-05-25T01:31:56;97650.78;;;19.49;50.30
62072;BME280;48031;48.542;13.232;2023-05-25T01:36:00;97653.59;;;19.44;51.28
62072;BME280;48031;48.542;13.232;2023-05-25T01:40:03;97653.53;;;19.49;51.14
62072;BME280;48031;48.542;13.232;2023-05-25T01:44:09;97647.03;;;19.26;50.13
62072;BME280;48031;48.542;13.232;2023-05-25T01:48:29;97647.69;;;19.50;51.21
62072;BME280;48031;48.542;13.232;2023-05-25T01:52:35;97643.06;;;19.32;51.47
62072;BME280;48031;48.542;13.232;2023-05-25T01:56:39;97630.59;;;19.21;51.79
62072;BME280;48031;48.542;13.232;2023-05-25T02:00:44;97638.72;;;19.13;51.07
62072;BME280;48031;48.542;13.232;2023-05-25T02:04:46;97640.38;;;18.95;50.77
62072;BME280;48031;48.542;13.232;2023-05-25T02:08:49;97645.75;;;19.05;50.94
62072;BME280;48031;48.542;13.232;2023-05-25T02:12:52;97645.88;;;19.14;49.14
62072;BME280;48031;48.542;13.232;2023-05-25T02:16:53;97651.38;;;19.14;49.53
62072;BME280;48031;48.542;13.232;2023-05-25T02:20:55;97646.78;;;18.90;50.72
62072;BME280;48031;48.542;13.232;2023-05-25T02:24:58;97644.56;;;18.92;50.45
62072;BME280;48031;48.542;13.232;2023-05-25T02:29:04;97645.78;;;19.19;50.18
62072;BME280;48031;48.542;13.232;2023-05-25T02:33:06;97647.44;;;19.01;51.41
62072;BME280;48031;48.542;13.232;2023-05-25T02:37:09;97647.41;;;18.87;51.28
62072;BME280;48031;48.542;13.232;2023-05-25T02:41:11;97660.53;;;18.90;52.04
62072;BME280;48031;48.542;13.232;2023-05-25T02:45:12;97655.91;;;18.72;51.02
62072;BME280;48031;48.542;13.232;2023-05-25T02:49:14;97647.78;;;18.62;51.24
62072;BME280;48031;48.542;13.232;2023-05-25T02:53:16;97651.91;;;18.41;51.75
62072;BME280;48031;48.542;13.232;2023-05-25T02:57:18;97649.84;;;18.33;51.99
62072;BME280;48031;48.542;13.232;2023-05-25T03:01:20;97660.09;;;18.27;52.83
62072;BME280;48031;48.542;13.232;2023-05-25T03:05:27;97660.44;;;18.20;51.86
62072;BME280;48031;48.542;13.232;2023-05-25T03:09:29;97662.03;;;18.03;52.91
62072;BME280;48031;48.542;13.232;2023-05-25T03:13:30;97664.09;;;17.92;52.61
62072;BME280;48031;48.542;13.232;2023-05-25T03:17:32;97669.94;;;17.85;52.86
62072;BME280;48031;48.542;13.232;2023-05-25T03:21:34;97673.78;;;17.61;53.87
62072;BME280;48031;48.542;13.232;2023-05-25T03:25:37;97668.41;;;17.45;53.75
62072;BME280;48031;48.542;13.232;2023-05-25T03:29:39;97666.25;;;17.71;52.63
62072;BME280;48031;48.542;13.232;2023-05-25T03:33:43;97667.38;;;17.70;52.38
62072;BME280;48031;48.542;13.232;2023-05-25T03:37:51;97653.91;;;17.69;52.26
62072;BME280;48031;48.542;13.232;2023-05-25T03:41:53;97665.50;;;17.66;52.01
62072;BME280;48031;48.542;13.232;2023-05-25T03:45:56;97656.09;;;17.72;52.64
62072;BME280;48031;48.542;13.232;2023-05-25T03:49:58;97655.09;;;17.58;52.32
62072;BME280;48031;48.542;13.232;2023-05-25T03:54:00;97657.56;;;17.59;52.46
62072;BME280;48031;48.542;13.232;2023-05-25T03:58:04;97664.31;;;17.43;52.72
62072;BME280;48031;48.542;13.232;2023-05-25T04:02:07;97666.19;;;17.48;53.12
62072;BME280;48031;48.542;13.232;2023-05-25T04:06:09;97671.47;;;17.39;52.86
62072;BME280;48031;48.542;13.232;2023-05-25T04:10:12;97677.72;;;17.44;52.00
62072;BME280;48031;48.542;13.232;2023-05-25T04:14:14;97678.44;;;17.31;51.99
62072;BME280;48031;48.542;13.232;2023-05-25T04:18:17;97676.38;;;17.13;52.99
62072;BME280;48031;48.542;13.232;2023-05-25T04:22:21;97680.56;;;17.05;52.68
62072;BME280;48031;48.542;13.232;2023-05-25T04:26:23;97676.41;;;17.42;52.21
62072;BME280;48031;48.542;13.232;2023-05-25T04:30:30;97677.94;;;17.53;51.44
62072;BME280;48031;48.542;13.232;2023-05-25T04:34:52;97688.16;;;17.48;52.08
62072;BME280;48031;48.542;13.232;2023-05-25T04:38:59;97701.00;;;17.52;51.43
62072;BME280;48031;48.542;13.232;2023-05-25T04:43:06;97691.50;;;18.40;49.49
62072;BME280;48031;48.542;13.232;2023-05-25T04:47:10;97702.06;;;17.85;51.57
62072;BME280;48031;48.542;13.232;2023-05-25T04:51:13;97700.34;;;17.94;51.07
62072;BME280;48031;48.542;13.232;2023-05-25T04:55:15;97698.34;;;18.00;51.02
62072;BME280;48031;48.542;13.232;2023-05-25T04:59:18;97700.63;;;17.93;51.84
62072;BME280;48031;48.542;13.232;2023-05-25T05:03:21;97705.44;;;18.01;50.89
62072;BME280;48031;48.542;13.232;2023-05-25T05:07:24;97694.25;;;17.97;51.44
62072;BME280;48031;48.542;13.232;2023-05-25T05:11:27;97707.50;;;17.90;51.45
62072;BME280;48031;48.542;13.232;2023-05-25T05:15:30;97705.09;;;17.83;51.38
62072;BME280;48031;48.542;13.232;2023-05-25T05:19:33;97703.81;;;17.76;51.92
62072;BME280;48031;48.542;13.232;2023-05-25T05:23:36;97703.06;;;17.94;51.42
62072;BME280;48031;48.542;13.232;2023-05-25T05:27:38;97702.41;;;18.26;51.01
62072;BME280;48031;48.542;13.232;2023-05-25T05:31:47;97704.63;;;18.00;51.71
62072;BME280;48031;48.542;13.232;2023-05-25T05:35:49;97702.88;;;18.33;50.89
62072;BME280;48031;48.542;13.232;2023-05-25T05:39:55;97703.38;;;18.16;51.61
62072;BME280;48031;48.542;13.232;2023-05-25T05:43:57;97713.97;;;18.47;50.63
62072;BME280;48031;48.542;13.232;2023-05-25T05:47:58;97707.28;;;18.53;50.46
62072;BME280;48031;48.542;13.232;2023-05-25T05:52:02;97710.03;;;18.53;50.71
62072;BME280;48031;48.542;13.232;2023-05-25T05:56:04;97706.81;;;18.69;49.83
62072;BME280;48031;48.542;13.232;2023-05-25T06:00:08;97709.00;;;18.67;50.15
62072;BME280;48031;48.542;13.232;2023-05-25T06:04:17;97710.38;;;18.89;49.75
62072;BME280;48031;48.542;13.232;2023-05-25T06:08:19;97721.03;;;18.53;49.48
62072;BME280;48031;48.542;13.232;2023-05-25T06:12:21;97708.47;;;18.47;50.85
62072;BME280;48031;48.542;13.232;2023-05-25T06:16:23;97720.56;;;18.88;48.77
62072;BME280;48031;48.542;13.232;2023-05-25T06:20:25;97715.88;;;18.89;49.54
62072;BME280;48031;48.542;13.232;2023-05-25T06:24:28;97718.97;;;19.01;48.99
62072;BME280;48031;48.542;13.232;2023-05-25T06:28:31;97715.63;;;18.85;50.53
62072;BME280;48031;48.542;13.232;2023-05-25T06:32:33;97714.66;;;18.95;49.85
62072;BME280;48031;48.542;13.232;2023-05-25T06:36:35;97718.34;;;19.23;48.99
62072;BME280;48031;48.542;13.232;2023-05-25T06:40:37;97732.47;;;19.35;49.41
62072;BME280;48031;48.542;13.232;2023-05-25T06:44:39;97729.69;;;19.21;49.39
62072;BME280;48031;48.542;13.232;2023-05-25T06:48:42;97729.97;;;19.20;48.77
62072;BME280;48031;48.542;13.232;2023-05-25T06:52:45;97737.25;;;19.29;48.61
62072;BME280;48031;48.542;13.232;2023-05-25T06:56:47;97726.56;;;19.28;48.85
62072;BME280;48031;48.542;13.232;2023-05-25T07:00:49;97736.97;;;19.49;48.70
62072;BME280;48031;48.542;13.232;2023-05-25T07:04:51;97745.59;;;19.75;47.95
62072;BME280;48031;48.542;13.232;2023-05-25T07:08:53;97733.91;;;19.32;49.15
62072;BME280;48031;48.542;13.232;2023-05-25T07:12:56;97742.00;;;19.61;49.04
62072;BME280;48031;48.542;13.232;2023-05-25T07:16:58;97744.31;;;19.54;48.75
62072;BME280;48031;48.542;13.232;2023-05-25T07:20:59;97736.78;;;19.60;49.07
62072;BME280;48031;48.542;13.232;2023-05-25T07:25:01;97743.75;;;19.84;48.65
62072;BME280;48031;48.542;13.232;2023-05-25T07:29:03;97748.44;;;19.70;48.95
62072;BME280;48031;48.542;13.232;2023-05-25T07:33:05;97747.47;;;20.07;47.95
62072;BME280;48031;48.542;13.232;2023-05-25T07:37:07;97748.66;;;20.33;47.40
62072;BME280;48031;48.542;13.232;2023-05-25T07:41:08;97750.25;;;20.21;47.77
62072;BME280;48031;48.542;13.232;2023-05-25T07:45:10;97748.31;;;20.49;47.08
62072;BME280;48031;48.542;13.232;2023-05-25T07:49:12;97757.94;;;20.38;47.53
62072;BME280;48031;48.542;13.232;2023-05-25T07:53:16;97756.97;;;20.15;48.13
62072;BME280;48031;48.542;13.232;2023-05-25T07:57:18;97763.53;;;20.46;47.93
62072;BME280;48031;48.542;13.232;2023-05-25T08:01:20;97755.47;;;20.50;47.45
62072;BME280;48031;48.542;13.232;2023-05-25T08:05:22;97755.56;;;20.72;47.02
62072;BME280;48031;48.542;13.232;2023-05-25T08:09:23;97767.19;;;20.83;46.60
62072;BME280;48031;48.542;13.232;2023-05-25T08:13:25;97775.78;;;20.67;47.32
62072;BME280;48031;48.542;13.232;2023-05-25T08:17:27;97763.94;;;20.53;47.37
62072;BME280;48031;48.542;13.232;2023-05-25T08:21:29;97776.94;;;20.66;46.64
62072;BME280;48031;48.542;13.232;2023-05-25T08:25:32;97755.03;;;20.84;46.34
62072;BME280;48031;48.542;13.232;2023-05-25T08:29:34;97762.22;;;21.07;44.90
62072;BME280;48031;48.542;13.232;2023-05-25T08:33:36;97761.72;;;21.05;46.44
62072;BME280;48031;48.542;13.232;2023-05-25T08:37:38;97754.56;;;21.04;46.70
62072;BME280;48031;48.542;13.232;2023-05-25T08:41:42;97753.22;;;21.15;46.98
62072;BME280;48031;48.542;13.232;2023-05-25T08:45:44;97755.13;;;21.28;46.37
62072;BME280;48031;48.542;13.232;2023-05-25T08:49:48;97768.16;;;21.50;46.66
62072;BME280;48031;48.542;13.232;2023-05-25T08:53:52;97751.03;;;21.70;45.84
62072;BME280;48031;48.542;13.232;2023-05-25T08:58:13;97764.13;;;21.78;46.99
62072;BME280;48031;48.542;13.232;2023-05-25T09:02:34;97771.47;;;22.14;45.75
62072;BME280;48031;48.542;13.232;2023-05-25T09:06:39;97762.47;;;22.00;45.99
62072;BME280;48031;48.542;13.232;2023-05-25T09:10:41;97770.25;;;21.75;46.74
62072;BME280;48031;48.542;13.232;2023-05-25T09:14:43;97781.94;;;22.17;45.30
62072;BME280;48031;48.542;13.232;2023-05-25T09:18:48;97772.50;;;22.18;45.69
62072;BME280;48031;48.542;13.232;2023-05-25T09:22:50;97778.09;;;22.35;43.07
62072;BME280;48031;48.542;13.232;2023-05-25T09:26:52;97774.84;;;22.33;44.37
62072;BME280;48031;48.542;13.232;2023-05-25T09:30:54;97773.91;;;22.46;44.95
62072;BME280;48031;48.542;13.232;2023-05-25T09:35:08;97767.88;;;22.92;43.74
62072;BME280;48031;48.542;13.232;2023-05-25T09:39:11;97777.38;;;22.69;44.45
62072;BME280;48031;48.542;13.232;2023-05-25T09:43:15;97773.59;;;23.13;44.58
62072;BME280;48031;48.542;13.232;2023-05-25T09:47:35;97781.94;;;23.39;43.31
62072;BME280;48031;48.542;13.232;2023-05-25T09:51:37;97781.41;;;23.02;44.16
62072;BME280;48031;48.542;13.232;2023-05-25T09:55:39;97765.16;;;23.18;43.61
62072;BME280;48031;48.542;13.232;2023-05-25T09:59:55;97767.28;;;23.38;43.23
62072;BME280;48031;48.542;13.232;2023-05-25T10:03:57;97765.63;;;23.63;42.25
62072;BME280;48031;48.542;13.232;2023-05-25T10:08:06;97768.78;;;24.25;42.88
62072;BME280;48031;48.542;13.232;2023-05-25T10:12:10;97772.84;;;25.04;40.26
62072;BME280;48031;48.542;13.232;2023-05-25T10:16:15;97763.97;;;25.73;38.24
62072;BME280;48031;48.542;13.232;2023-05-25T10:20:20;97756.06;;;26.77;35.47
62072;BME280;48031;48.542;13.232;2023-05-25T10:24:30;97750.69;;;27.20;34.87
62072;BME280;48031;48.542;13.232;2023-05-25T10:28:38;97746.00;;;28.20;32.23
62072;BME280;48031;48.542;13.232;2023-05-25T10:32:41;97758.59;;;28.73;31.85
62072;BME280;48031;48.542;13.232;2023-05-25T10:36:45;97751.63;;;28.83;31.75
62072;BME280;48031;48.542;13.232;2023-05-25T10:40:49;97750.44;;;29.73;31.26
62072;BME280;48031;48.542;13.232;2023-05-25T10:44:52;97750.22;;;30.01;29.53
62072;BME280;48031;48.542;13.232;2023-05-25T10:48:54;97746.97;;;29.99;29.12
62072;BME280;48031;48.542;13.232;2023-05-25T10:53:14;97743.78;;;32.04;25.76
62072;BME280;48031;48.542;13.232;2023-05-25T10:57:18;97748.50;;;31.63;27.59
62072;BME280;48031;48.542;13.232;2023-05-25T11:01:21;97743.94;;;31.55;26.83
62072;BME280;48031;48.542;13.232;2023-05-25T11:09:29;97748.94;;;33.34;25.48
62072;BME280;48031;48.542;13.232;2023-05-25T11:13:36;97744.13;;;33.34;24.76
62072;BME280;48031;48.542;13.232;2023-05-25T11:17:56;97734.06;;;34.23;23.36
62072;BME280;48031;48.542;13.232;2023-05-25T11:22:14;97726.88;;;34.90;24.95
62072;BME280;48031;48.542;13.232;2023-05-25T11:26:19;97731.72;;;35.21;22.65
62072;BME280;48031;48.542;13.232;2023-05-25T11:30:26;97721.66;;;36.21;20.79
62072;BME280;48031;48.542;13.232;2023-05-25T11:34:29;97712.81;;;36.71;21.27
62072;BME280;48031;48.542;13.232;2023-05-25T11:38:32;97723.28;;;36.78;20.90
62072;BME280;48031;48.542;13.232;2023-05-25T11:42:36;97718.38;;;36.27;20.08
62072;BME280;48031;48.542;13.232;2023-05-25T11:46:40;97712.56;;;37.37;19.79
62072;BME280;48031;48.542;13.232;2023-05-25T11:50:44;97709.97;;;37.87;20.03
62072;BME280;48031;48.542;13.232;2023-05-25T11:54:46;97704.41;;;38.10;18.25
62072;BME280;48031;48.542;13.232;2023-05-25T11:58:49;97697.41;;;38.68;17.70
62072;BME280;48031;48.542;13.232;2023-05-25T12:02:51;97693.88;;;39.11;17.86
62072;BME280;48031;48.542;13.232;2023-05-25T12:07:00;97691.28;;;39.60;18.43
62072;BME280;48031;48.542;13.232;2023-05-25T12:11:03;97692.47;;;39.82;18.97
62072;BME280;48031;48.542;13.232;2023-05-25T12:15:06;97692.31;;;40.25;18.28
62072;BME280;48031;48.542;13.232;2023-05-25T12:19:09;97697.09;;;41.13;16.25
62072;BME280;48031;48.542;13.232;2023-05-25T12:23:12;97683.16;;;41.88;16.42
62072;BME280;48031;48.542;13.232;2023-05-25T12:27:19;97690.38;;;42.56;14.56
62072;BME280;48031;48.542;13.232;2023-05-25T12:31:25;97686.50;;;42.76;15.00
62072;BME280;48031;48.542;13.232;2023-05-25T12:35:28;97674.94;;;42.66;15.39
62072;BME280;48031;48.542;13.232;2023-05-25T12:43:39;97667.56;;;43.81;14.82
62072;BME280;48031;48.542;13.232;2023-05-25T12:47:44;97670.53;;;43.90;14.91
62072;BME280;48031;48.542;13.232;2023-05-25T12:51:46;97656.94;;;43.04;13.94
62072;BME280;48031;48.542;13.232;2023-05-25T12:55:48;97656.84;;;43.64;14.29
62072;BME280;48031;48.542;13.232;2023-05-25T12:59:54;97664.00;;;43.68;14.01
62072;BME280;48031;48.542;13.232;2023-05-25T13:03:56;97665.81;;;44.27;15.45
62072;BME280;48031;48.542;13.232;2023-05-25T13:07:59;97664.00;;;43.90;13.19
62072;BME280;48031;48.542;13.232;2023-05-25T13:12:03;97647.94;;;44.63;14.30
62072;BME280;48031;48.542;13.232;2023-05-25T13:16:05;97657.28;;;44.15;13.50
62072;BME280;48031;48.542;13.232;2023-05-25T13:20:11;97660.88;;;44.77;14.75
62072;BME280;48031;48.542;13.232;2023-05-25T13:24:14;97650.47;;;44.61;14.55
62072;BME280;48031;48.542;13.232;2023-05-25T13:28:17;97656.31;;;43.87;12.25
62072;BME280;48031;48.542;13.232;2023-05-25T13:32:18;97657.91;;;44.10;11.91
62072;BME280;48031;48.542;13.232;2023-05-25T13:36:21;97659.19;;;43.87;12.85
62072;BME280;48031;48.542;13.232;2023-05-25T13:40:22;97656.19;;;44.21;14.40
62072;BME280;48031;48.542;13.232;2023-05-25T13:44:24;97646.38;;;44.71;14.68
62072;BME280;48031;48.542;13.232;2023-05-25T13:48:27;97642.00;;;45.07;13.32
62072;BME280;48031;48.542;13.232;2023-05-25T13:52:31;97641.16;;;44.88;14.54
62072;BME280;48031;48.542;13.232;2023-05-25T13:56:33;97635.25;;;44.73;14.12
62072;BME280;48031;48.542;13.232;2023-05-25T14:00:35;97629.72;;;44.30;14.87
62072;BME280;48031;48.542;13.232;2023-05-25T14:04:37;97635.19;;;44.64;13.77
62072;BME280;48031;48.542;13.232;2023-05-25T14:08:39;97625.50;;;44.53;12.45
62072;BME280;48031;48.542;13.232;2023-05-25T14:12:41;97628.91;;;44.29;11.54
62072;BME280;48031;48.542;13.232;2023-05-25T14:16:42;97620.41;;;44.66;12.73
62072;BME280;48031;48.542;13.232;2023-05-25T14:20:44;97615.63;;;43.83;12.10
62072;BME280;48031;48.542;13.232;2023-05-25T14:24:46;97619.75;;;44.13;12.88
62072;BME280;48031;48.542;13.232;2023-05-25T14:28:48;97619.03;;;42.44;13.87
62072;BME280;48031;48.542;13.232;2023-05-25T14:32:50;97613.78;;;42.89;15.10
62072;BME280;48031;48.542;13.232;2023-05-25T14:36:52;97613.41;;;43.00;13.48
62072;BME280;48031;48.542;13.232;2023-05-25T14:40:53;97610.88;;;41.66;14.34
62072;BME280;48031;48.542;13.232;2023-05-25T14:44:55;97606.16;;;41.02;16.05
62072;BME280;48031;48.542;13.232;2023-05-25T14:48:57;97601.19;;;40.45;16.75
62072;BME280;48031;48.542;13.232;2023-05-25T14:52:59;97606.75;;;38.61;17.77
62072;BME280;48031;48.542;13.232;2023-05-25T14:57:01;97594.38;;;37.98;18.77
62072;BME280;48031;48.542;13.232;2023-05-25T15:01:03;97608.34;;;36.87;18.22
62072;BME280;48031;48.542;13.232;2023-05-25T15:05:05;97605.72;;;36.18;18.18
62072;BME280;48031;48.542;13.232;2023-05-25T15:09:07;97605.09;;;35.09;20.93
62072;BME280;48031;48.542;13.232;2023-05-25T15:13:10;97601.94;;;34.86;20.80
62072;BME280;48031;48.542;13.232;2023-05-25T15:17:13;97599.13;;;34.64;21.84
62072;BME280;48031;48.542;13.232;2023-05-25T15:21:16;97591.09;;;34.17;23.26
62072;BME280;48031;48.542;13.232;2023-05-25T15:25:18;97597.78;;;33.31;23.59
62072;BME280;48031;48.542;13.232;2023-05-25T15:29:35;97598.41;;;32.99;24.01
62072;BME280;48031;48.542;13.232;2023-05-25T15:33:37;97588.06;;;33.18;22.88
62072;BME280;48031;48.542;13.232;2023-05-25T15:37:57;97582.13;;;33.44;25.17
62072;BME280;48031;48.542;13.232;2023-05-25T15:41:59;97593.19;;;33.01;24.17
62072;BME280;48031;48.542;13.232;2023-05-25T15:46:02;97578.09;;;32.62;22.85
62072;BME280;48031;48.542;13.232;2023-05-25T15:50:04;97584.50;;;32.59;23.25
62072;BME280;48031;48.542;13.232;2023-05-25T15:54:07;97583.84;;;32.83;23.81
62072;BME280;48031;48.542;13.232;2023-05-25T15:58:12;97588.75;;;32.32;24.70
62072;BME280;48031;48.542;13.232;2023-05-25T16:02:14;97580.84;;;32.55;24.29
62072;BME280;48031;48.542;13.232;2023-05-25T16:06:16;97598.06;;;32.43;24.45
62072;BME280;48031;48.542;13.232;2023-05-25T16:10:18;97599.38;;;32.08;25.27
62072;BME280;48031;48.542;13.232;2023-05-25T16:14:20;97590.75;;;31.87;25.51
62072;BME280;48031;48.542;13.232;2023-05-25T16:18:21;97591.34;;;32.10;25.79
62072;BME280;48031;48.542;13.232;2023-05-25T16:22:23;97577.47;;;31.10;26.08
62072;BME280;48031;48.542;13.232;2023-05-25T16:26:25;97586.41;;;32.44;25.32
62072;BME280;48031;48.542;13.232;2023-05-25T16:30:27;97591.03;;;32.70;24.64
62072;BME280;48031;48.542;13.232;2023-05-25T16:34:29;97579.31;;;33.37;23.12
62072;BME280;48031;48.542;13.232;2023-05-25T16:38:31;97581.84;;;33.92;22.62
62072;BME280;48031;48.542;13.232;2023-05-25T16:42:33;97580.22;;;34.51;21.68
62072;BME280;48031;48.542;13.232;2023-05-25T16:46:38;97584.13;;;35.07;23.53
62072;BME280;48031;48.542;13.232;2023-05-25T16:50:40;97572.72;;;35.38;21.56
62072;BME280;48031;48.542;13.232;2023-05-25T16:54:42;97589.25;;;35.40;21.83
62072;BME280;48031;48.542;13.232;2023-05-25T16:58:44;97579.94;;;35.47;22.54
62072;BME280;48031;48.542;13.232;2023-05-25T17:02:45;97581.84;;;34.48;22.71
62072;BME280;48031;48.542;13.232;2023-05-25T17:06:47;97583.84;;;33.80;23.13
62072;BME280;48031;48.542;13.232;2023-05-25T17:10:49;97582.44;;;33.18;24.81
62072;BME280;48031;48.542;13.232;2023-05-25T17:14:51;97586.06;;;32.53;24.48
62072;BME280;48031;48.542;13.232;2023-05-25T17:18:53;97590.34;;;32.33;25.84
62072;BME280;48031;48.542;13.232;2023-05-25T17:22:54;97593.56;;;31.87;25.92
62072;BME280;48031;48.542;13.232;2023-05-25T17:26:57;97583.13;;;31.14;27.28
62072;BME280;48031;48.542;13.232;2023-05-25T17:30:58;97584.47;;;31.27;26.84
62072;BME280;48031;48.542;13.232;2023-05-25T17:35:01;97592.13;;;31.00;28.40
62072;BME280;48031;48.542;13.232;2023-05-25T17:39:03;97591.50;;;30.54;28.75
62072;BME280;48031;48.542;13.232;2023-05-25T17:43:06;97592.56;;;30.46;29.98
62072;BME280;48031;48.542;13.232;2023-05-25T17:47:07;97606.72;;;30.30;30.12
62072;BME280;48031;48.542;13.232;2023-05-25T17:51:12;97609.03;;;30.25;32.00
62072;BME280;48031;48.542;13.232;2023-05-25T17:55:14;97603.13;;;29.84;32.79
62072;BME280;48031;48.542;13.232;2023-05-25T17:59:15;97610.88;;;29.49;31.99
62072;BME280;48031;48.542;13.232;2023-05-25T18:03:17;97608.31;;;29.40;31.09
62072;BME280;48031;48.542;13.232;2023-05-25T18:07:19;97612.72;;;29.22;33.42
62072;BME280;48031;48.542;13.232;2023-05-25T18:11:22;97612.44;;;29.08;32.43
62072;BME280;48031;48.542;13.232;2023-05-25T18:15:25;97626.63;;;28.64;32.55
62072;BME280;48031;48.542;13.232;2023-05-25T18:19:26;97632.34;;;28.71;31.82
62072;BME280;48031;48.542;13.232;2023-05-25T18:23:28;97634.25;;;28.01;32.49
62072;BME280;48031;48.542;13.232;2023-05-25T18:27:30;97639.28;;;27.95;32.92
62072;BME280;48031;48.542;13.232;2023-05-25T18:31:32;97640.78;;;27.93;32.74
62072;BME280;48031;48.542;13.232;2023-05-25T18:35:34;97646.63;;;27.56;33.01
62072;BME280;48031;48.542;13.232;2023-05-25T18:39:36;97651.00;;;27.29;32.73
62072;BME280;48031;48.542;13.232;2023-05-25T18:43:38;97650.59;;;27.15;32.31
62072;BME280;48031;48.542;13.232;2023-05-25T18:47:39;97648.34;;;26.93;33.21
62072;BME280;48031;48.542;13.232;2023-05-25T18:51:42;97658.31;;;26.94;32.47
62072;BME280;48031;48.542;13.232;2023-05-25T18:55:43;97657.19;;;26.71;33.99
62072;BME280;48031;48.542;13.232;2023-05-25T18:59:46;97667.97;;;26.84;33.42
62072;BME280;48031;48.542;13.232;2023-05-25T19:03:47;97673.69;;;26.52;34.02
62072;BME280;48031;48.542;13.232;2023-05-25T19:07:50;97675.81;;;26.30;34.84
62072;BME280;48031;48.542;13.232;2023-05-25T19:11:59;97671.34;;;26.17;34.21
62072;BME280;48031;48.542;13.232;2023-05-25T19:16:01;97676.88;;;25.93;34.94
62072;BME280;48031;48.542;13.232;2023-05-25T19:20:05;97685.22;;;25.93;34.64
62072;BME280;48031;48.542;13.232;2023-05-25T19:24:07;97686.97;;;25.85;34.25
62072;BME280;48031;48.542;13.232;2023-05-25T19:28:10;97693.38;;;25.65;35.28
62072;BME280;48031;48.542;13.232;2023-05-25T19:32:15;97702.84;;;25.85;34.38
62072;BME280;48031;48.542;13.232;2023-05-25T19:36:17;97709.13;;;25.40;35.62
62072;BME280;48031;48.542;13.232;2023-05-25T19:40:19;97711.56;;;25.42;35.51
62072;BME280;48031;48.542;13.232;2023-05-25T19:44:21;97710.44;;;25.22;35.64
62072;BME280;48031;48.542;13.232;2023-05-25T19:48:23;97713.53;;;25.20;36.30
62072;BME280;48031;48.542;13.232;2023-05-25T19:52:27;97720.50;;;24.85;36.58
62072;BME280;48031;48.542;13.232;2023-05-25T19:56:29;97725.91;;;24.81;35.90
62072;BME280;48031;48.542;13.232;2023-05-25T20:00:31;97731.66;;;24.76;37.24
62072;BME280;48031;48.542;13.232;2023-05-25T20:04:33;97738.53;;;24.70;36.71
62072;BME280;48031;48.542;13.232;2023-05-25T20:08:36;97742.72;;;24.18;37.84
62072;BME280;48031;48.542;13.232;2023-05-25T20:12:37;97742.41;;;24.02;36.48
62072;BME280;48031;48.542;13.232;2023-05-25T20:16:39;97742.94;;;23.95;36.94
62072;BME280;48031;48.542;13.232;2023-05-25T20:20:42;97746.34;;;23.92;37.52
62072;BME280;48031;48.542;13.232;2023-05-25T20:24:44;97757.75;;;23.99;36.94
62072;BME280;48031;48.542;13.232;2023-05-25T20:28:45;97746.75;;;23.74;36.96
62072;BME280;48031;48.542;13.232;2023-05-25T20:32:47;97750.00;;;23.58;37.35
62072;BME280;48031;48.542;13.232;2023-05-25T20:36:49;97744.00;;;23.56;37.03
62072;BME280;48031;48.542;13.232;2023-05-25T20:40:51;97753.59;;;23.59;38.42
62072;BME280;48031;48.542;13.232;2023-05-25T20:44:53;97759.31;;;23.54;37.77
62072;BME280;48031;48.542;13.232;2023-05-25T20:48:55;97756.53;;;23.45;37.37
62072;BME280;48031;48.542;13.232;2023-05-25T20:52:58;97763.69;;;23.20;37.49
62072;BME280;48031;48.542;13.232;2023-05-25T20:57:00;97753.59;;;23.50;36.71
62072;BME280;48031;48.542;13.232;2023-05-25T21:01:04;97764.81;;;23.19;38.15
62072;BME280;48031;48.542;13.232;2023-05-25T21:05:07;97772.97;;;23.25;37.88
62072;BME280;48031;48.542;13.232;2023-05-25T21:09:08;97770.06;;;23.47;36.84
62072;BME280;48031;48.542;13.232;2023-05-25T21:13:11;97769.88;;;23.43;36.74
62072;BME280;48031;48.542;13.232;2023-05-25T21:17:13;97771.50;;;23.36;36.79
62072;BME280;48031;48.542;13.232;2023-05-25T21:21:15;97775.44;;;23.60;37.50
62072;BME280;48031;48.542;13.232;2023-05-25T21:25:17;97772.00;;;23.46;37.14